Time;durP1;ratioP1;P1;durP2;ratioP2;P2;SDS_P1;SDS_P2;PMS_P1;PMS_P2;Temp;Humidity;BMP_temperature;BMP_pressure;BME280_temperature;BME280_humidity;BME280_pressure;Samples;Min_cycle;Max_cycle;Signal;HPM_P1;HPM_P2
2022/08/17 00:00:27;;;;;;;1.00;1.00;;;22.60;99.90;;;;;;5105485;28;20208;-67
2022/08/17 00:03:00;;;;;;;1.00;1.00;;;22.60;99.90;;;;;;5107183;28;20685;-68
2022/08/17 00:05:28;;;;;;;0.93;0.93;;;22.60;99.90;;;;;;5106828;28;20308;-66
2022/08/17 00:07:55;;;;;;;1.00;1.00;;;22.60;99.90;;;;;;5105729;28;20218;-67
2022/08/17 00:10:23;;;;;;;0.90;0.90;;;22.70;99.90;;;;;;5106217;28;20214;-67
2022/08/17 00:12:51;;;;;;;1.30;1.20;;;22.70;99.90;;;;;;5107126;28;20289;-66
2022/08/17 00:15:20;;;;;;;1.07;1.07;;;22.70;99.90;;;;;;5098802;28;20290;-67
2022/08/17 00:17:47;;;;;;;0.90;0.90;;;22.70;99.90;;;;;;5093407;28;20203;-67
2022/08/17 00:20:14;;;;;;;1.10;1.10;;;22.70;99.90;;;;;;5093872;28;20629;-67
2022/08/17 00:22:41;;;;;;;1.00;1.00;;;22.70;99.90;;;;;;5091892;28;20207;-67
2022/08/17 00:25:11;;;;;;;1.02;1.02;;;22.80;99.90;;;;;;5086469;28;20478;-67
2022/08/17 00:27:40;;;;;;;1.13;1.10;;;22.80;99.90;;;;;;5088948;28;20321;-69
2022/08/17 00:30:10;;;;;;;0.90;0.90;;;22.80;99.90;;;;;;5086376;28;20194;-67
2022/08/17 00:32:39;;;;;;;1.00;1.00;;;22.80;99.90;;;;;;5093723;28;20202;-67
2022/08/17 00:35:09;;;;;;;1.00;1.00;;;22.80;99.90;;;;;;5092377;28;20202;-66
2022/08/17 00:37:36;;;;;;;0.95;0.95;;;22.70;99.90;;;;;;5092213;28;20289;-67
2022/08/17 00:40:03;;;;;;;1.08;1.08;;;22.80;99.90;;;;;;5091366;28;20199;-67
2022/08/17 00:42:30;;;;;;;1.00;1.00;;;22.70;99.90;;;;;;5092665;28;20804;-67
2022/08/17 00:44:58;;;;;;;2.30;1.17;;;22.80;99.90;;;;;;5086979;28;20325;-68
2022/08/17 00:47:25;;;;;;;1.00;1.00;;;22.70;99.90;;;;;;5092785;28;20217;-68
2022/08/17 00:49:52;;;;;;;1.20;1.20;;;22.70;99.90;;;;;;5097361;28;20260;-67
2022/08/17 00:52:22;;;;;;;1.20;1.20;;;22.70;99.90;;;;;;5092205;28;20203;-66
2022/08/17 00:54:53;;;;;;;1.00;1.00;;;22.60;99.90;;;;;;5092850;28;20199;-66
2022/08/17 00:57:24;;;;;;;1.20;1.20;;;22.60;99.90;;;;;;5092025;28;20294;-64
2022/08/17 00:59:55;;;;;;;1.40;1.30;;;22.60;99.90;;;;;;5091550;28;20236;-65
2022/08/17 01:02:24;;;;;;;1.10;1.10;;;22.60;99.90;;;;;;5093201;28;20288;-65
2022/08/17 01:04:53;;;;;;;1.00;1.00;;;22.70;99.90;;;;;;5091708;28;20248;-65
2022/08/17 01:07:22;;;;;;;1.20;1.20;;;22.70;99.90;;;;;;5091425;28;20211;-66
2022/08/17 01:09:50;;;;;;;1.00;1.00;;;22.80;99.90;;;;;;5096930;28;20226;-67
2022/08/17 01:12:17;;;;;;;1.00;1.00;;;22.70;99.90;;;;;;5094488;28;20252;-65
2022/08/17 01:14:44;;;;;;;1.30;1.20;;;22.70;99.90;;;;;;5093163;28;20271;-66
2022/08/17 01:17:11;;;;;;;1.20;1.20;;;22.50;99.90;;;;;;5093233;28;20258;-65
2022/08/17 01:19:41;;;;;;;1.10;1.10;;;22.50;99.90;;;;;;5093197;28;20222;-68
2022/08/17 01:22:18;;;;;;;1.33;1.20;;;22.40;99.90;;;;;;5092111;28;20207;-66
2022/08/17 01:24:48;;;;;;;1.10;1.10;;;22.40;99.90;;;;;;5088808;28;20301;-66
2022/08/17 01:27:16;;;;;;;1.10;1.10;;;22.40;99.90;;;;;;5090081;28;20199;-65
2022/08/17 01:29:47;;;;;;;1.10;1.10;;;22.40;99.90;;;;;;5093276;28;20219;-66
2022/08/17 01:32:14;;;;;;;1.10;1.10;;;22.40;99.90;;;;;;5094535;28;20314;-64
2022/08/17 01:34:41;;;;;;;1.10;1.10;;;22.30;99.90;;;;;;5095414;28;20195;-66
2022/08/17 01:37:08;;;;;;;1.00;1.00;;;22.40;99.90;;;;;;5091397;28;20297;-67
2022/08/17 01:39:40;;;;;;;1.13;1.13;;;22.40;99.90;;;;;;5092779;28;20240;-66
2022/08/17 01:42:11;;;;;;;1.20;1.20;;;22.50;99.90;;;;;;5091174;28;20221;-68
2022/08/17 01:44:38;;;;;;;1.10;1.10;;;22.60;99.90;;;;;;5081531;28;20648;-65
2022/08/17 01:47:05;;;;;;;1.02;1.02;;;22.60;99.90;;;;;;5086149;28;20610;-68
2022/08/17 01:49:33;;;;;;;1.02;1.02;;;22.50;99.90;;;;;;5091805;28;20309;-68
2022/08/17 01:52:06;;;;;;;1.20;1.20;;;22.40;99.90;;;;;;5087379;28;20252;-67
2022/08/17 01:54:33;;;;;;;1.30;1.20;;;22.30;99.90;;;;;;5088081;28;20198;-67
2022/08/17 01:57:01;;;;;;;1.40;1.30;;;22.20;99.90;;;;;;5089259;28;20287;-67
2022/08/17 01:59:28;;;;;;;1.20;1.20;;;22.20;99.90;;;;;;5093374;28;20262;-67
2022/08/17 02:01:55;;;;;;;1.13;1.13;;;22.20;99.90;;;;;;5098666;28;20206;-66
2022/08/17 02:04:22;;;;;;;1.27;1.20;;;22.20;99.90;;;;;;5101338;28;20330;-66
2022/08/17 02:06:49;;;;;;;1.13;1.13;;;22.20;99.90;;;;;;5097960;28;20572;-66
2022/08/17 02:09:16;;;;;;;1.13;1.13;;;22.10;99.90;;;;;;5091240;28;20799;-67
2022/08/17 02:11:43;;;;;;;1.05;1.05;;;22.00;99.90;;;;;;5091059;28;20316;-67
2022/08/17 02:14:11;;;;;;;1.10;1.10;;;22.00;99.90;;;;;;5084521;28;21310;-67
2022/08/17 02:16:40;;;;;;;1.17;1.17;;;21.90;99.90;;;;;;5086070;28;20207;-67
2022/08/17 02:19:09;;;;;;;1.10;1.10;;;21.90;99.90;;;;;;5084113;28;20309;-66
2022/08/17 02:21:38;;;;;;;1.00;1.00;;;21.90;99.90;;;;;;5090179;28;20291;-66
2022/08/17 02:24:06;;;;;;;1.10;1.10;;;21.90;99.90;;;;;;5090338;28;20207;-67
2022/08/17 02:26:33;;;;;;;1.00;1.00;;;22.00;99.90;;;;;;5092964;28;20203;-68
2022/08/17 02:29:00;;;;;;;1.25;1.20;;;22.10;99.90;;;;;;5091229;28;20230;-68
2022/08/17 02:31:29;;;;;;;1.10;1.10;;;22.20;99.90;;;;;;5092216;28;20207;-67
2022/08/17 02:33:57;;;;;;;1.20;1.20;;;22.30;99.90;;;;;;5088971;28;20199;-67
2022/08/17 02:36:24;;;;;;;1.10;1.10;;;22.30;99.90;;;;;;5093573;28;20202;-68
2022/08/17 02:38:51;;;;;;;1.27;1.27;;;22.20;99.90;;;;;;5093446;28;20229;-67
2022/08/17 02:41:17;;;;;;;1.30;1.20;;;22.20;99.90;;;;;;5093419;28;20226;-66
2022/08/17 02:43:44;;;;;;;1.20;1.20;;;22.30;99.90;;;;;;5093338;28;20719;-66
2022/08/17 02:46:11;;;;;;;1.20;1.20;;;22.30;99.90;;;;;;5092458;28;20568;-68
2022/08/17 02:48:40;;;;;;;1.20;1.20;;;22.30;99.90;;;;;;5094339;28;20376;-69
2022/08/17 02:51:07;;;;;;;1.40;1.30;;;22.40;99.90;;;;;;5094105;28;20570;-67
2022/08/17 02:53:34;;;;;;;1.30;1.20;;;22.50;99.90;;;;;;5090731;28;20334;-69
2022/08/17 02:56:01;;;;;;;1.20;1.20;;;22.50;99.90;;;;;;5092313;28;20288;-67
2022/08/17 02:58:28;;;;;;;1.40;1.30;;;22.50;99.90;;;;;;5099232;22;20232;-61
2022/08/17 03:00:55;;;;;;;1.10;1.10;;;22.40;99.90;;;;;;5068508;28;20305;-60
2022/08/17 03:03:22;;;;;;;1.10;1.10;;;22.20;99.90;;;;;;5070784;28;20227;-61
2022/08/17 03:05:51;;;;;;;1.10;1.10;;;22.10;99.90;;;;;;5070639;28;20314;-60
2022/08/17 03:08:19;;;;;;;1.10;1.10;;;22.10;99.90;;;;;;5071732;28;20277;-61
2022/08/17 03:10:47;;;;;;;1.00;1.00;;;22.00;99.90;;;;;;5071371;28;20213;-60
2022/08/17 03:13:14;;;;;;;1.15;1.15;;;21.90;99.90;;;;;;5071456;28;20294;-61
2022/08/17 03:15:44;;;;;;;1.13;1.13;;;21.80;99.90;;;;;;5071228;28;20286;-61
2022/08/17 03:18:12;;;;;;;1.20;1.20;;;21.80;99.90;;;;;;5069179;28;20214;-60
2022/08/17 03:20:40;;;;;;;1.17;1.17;;;21.70;99.90;;;;;;5067831;28;20217;-61
2022/08/17 03:23:08;;;;;;;1.38;1.38;;;21.70;99.90;;;;;;5071431;28;20275;-60
2022/08/17 03:25:38;;;;;;;1.50;1.40;;;21.60;99.90;;;;;;5070377;28;20309;-61
2022/08/17 03:28:05;;;;;;;1.30;1.30;;;21.60;99.90;;;;;;5069700;28;20219;-61
2022/08/17 03:30:33;;;;;;;1.25;1.25;;;21.50;99.90;;;;;;5071096;28;20287;-61
2022/08/17 03:33:02;;;;;;;1.53;1.30;;;21.50;99.90;;;;;;5070424;28;20203;-60
2022/08/17 03:35:33;;;;;;;1.20;1.20;;;21.50;99.90;;;;;;5070712;28;20195;-62
2022/08/17 03:38:00;;;;;;;1.40;1.40;;;21.40;99.90;;;;;;5069819;28;20357;-61
2022/08/17 03:40:30;;;;;;;1.30;1.30;;;21.30;99.90;;;;;;5070920;28;20294;-61
2022/08/17 03:42:57;;;;;;;1.20;1.20;;;21.40;99.90;;;;;;5070774;28;20204;-61
2022/08/17 03:56:42;;;;;;;1.10;1.10;;;21.40;99.90;;;;;;5071772;28;20252;-60
2022/08/17 03:59:10;;;;;;;1.10;1.10;;;21.40;99.90;;;;;;5074249;28;20606;-62
2022/08/17 04:01:37;;;;;;;1.15;1.15;;;21.50;99.90;;;;;;5074973;28;20211;-61
2022/08/17 04:04:05;;;;;;;1.00;1.00;;;21.50;99.90;;;;;;5075621;28;20210;-61
2022/08/17 04:06:31;;;;;;;1.27;1.25;;;21.60;99.90;;;;;;5077559;28;20223;-61
2022/08/17 04:08:58;;;;;;;1.33;1.33;;;21.50;99.90;;;;;;5079196;28;20237;-61
2022/08/17 04:11:25;;;;;;;1.10;1.10;;;21.50;99.90;;;;;;5077301;28;20219;-60
2022/08/17 04:13:57;;;;;;;1.50;1.20;;;21.50;99.90;;;;;;5076104;28;20650;-60
2022/08/17 04:16:25;;;;;;;1.70;1.30;;;21.40;99.90;;;;;;5074285;28;20213;-59
2022/08/17 04:18:54;;;;;;;1.40;1.40;;;21.40;99.90;;;;;;5073870;28;20225;-59
2022/08/17 04:21:23;;;;;;;1.30;1.30;;;21.30;99.90;;;;;;5074050;28;20230;-61
2022/08/17 04:24:03;;;;;;;1.20;1.20;;;21.40;99.90;;;;;;5073875;28;20195;-59
2022/08/17 04:26:31;;;;;;;1.10;1.10;;;21.40;99.90;;;;;;5072376;28;20693;-59
2022/08/17 04:29:00;;;;;;;1.20;1.20;;;21.40;99.90;;;;;;5073368;28;20223;-62
2022/08/17 04:31:27;;;;;;;1.27;1.27;;;21.40;99.90;;;;;;5073829;28;20756;-60
2022/08/17 04:33:55;;;;;;;1.30;1.30;;;21.50;99.90;;;;;;5073092;28;20681;-62
2022/08/17 04:36:27;;;;;;;1.38;1.30;;;21.50;99.90;;;;;;5074105;28;20266;-59
2022/08/17 04:38:54;;;;;;;1.08;1.08;;;21.50;99.90;;;;;;5073314;28;20246;-59
2022/08/17 04:44:07;;;;;;;1.23;1.00;;;21.50;99.90;;;;;;5072985;28;20202;-59
2022/08/17 04:46:35;;;;;;;1.37;1.27;;;21.50;99.90;;;;;;5073545;28;20727;-60
2022/08/17 04:49:04;;;;;;;1.20;1.20;;;21.50;99.90;;;;;;5073595;28;20219;-61
2022/08/17 04:51:35;;;;;;;1.20;1.20;;;21.50;99.90;;;;;;5073417;28;20295;-58
2022/08/17 04:54:05;;;;;;;1.10;1.10;;;21.50;99.90;;;;;;5073674;28;20203;-59
2022/08/17 04:56:34;;;;;;;1.20;1.20;;;21.50;99.90;;;;;;5075084;28;20230;-58
2022/08/17 04:59:04;;;;;;;1.10;1.10;;;21.40;99.90;;;;;;5073643;28;20321;-59
2022/08/17 05:01:34;;;;;;;1.20;1.20;;;21.40;99.90;;;;;;5072843;28;20211;-61
2022/08/17 05:04:05;;;;;;;1.30;1.20;;;21.50;99.90;;;;;;5072849;28;20235;-59
2022/08/17 05:06:31;;;;;;;1.10;1.10;;;21.40;99.90;;;;;;5070653;28;20696;-61
2022/08/17 05:08:59;;;;;;;1.25;1.25;;;21.50;99.90;;;;;;5072807;28;20310;-61
2022/08/17 05:11:27;;;;;;;1.38;1.27;;;21.60;99.90;;;;;;5072935;28;20208;-59
2022/08/17 05:13:56;;;;;;;1.50;1.40;;;21.60;99.90;;;;;;5072309;28;20218;-60
2022/08/17 05:16:24;;;;;;;2.13;1.42;;;21.60;99.90;;;;;;5072179;28;20227;-60
2022/08/17 05:18:57;;;;;;;1.52;1.42;;;21.60;99.90;;;;;;5073300;28;20313;-59
2022/08/17 05:21:28;;;;;;;1.50;1.40;;;21.60;99.90;;;;;;5072870;28;20211;-62
2022/08/17 05:23:57;;;;;;;1.30;1.30;;;21.50;99.90;;;;;;5072395;28;20206;-63
2022/08/17 05:26:26;;;;;;;1.53;1.50;;;21.60;99.90;;;;;;5073226;28;20226;-61
2022/08/17 05:28:54;;;;;;;1.70;1.60;;;21.60;99.90;;;;;;5072356;28;20219;-61
2022/08/17 05:31:21;;;;;;;1.70;1.60;;;21.50;99.90;;;;;;5073335;28;20230;-62
2022/08/17 05:33:52;;;;;;;1.70;1.60;;;21.40;99.90;;;;;;5073101;28;20203;-61
2022/08/17 05:36:22;;;;;;;1.47;1.37;;;21.10;99.90;;;;;;5073712;28;20195;-61
2022/08/17 05:38:50;;;;;;;1.77;1.67;;;21.00;99.90;;;;;;5073618;28;20216;-62
2022/08/17 05:41:17;;;;;;;3.55;1.58;;;20.90;99.90;;;;;;5073443;28;20204;-61
2022/08/17 05:43:43;;;;;;;1.60;1.50;;;20.80;99.90;;;;;;5069802;28;20218;-59
2022/08/17 05:46:21;;;;;;;1.60;1.50;;;20.70;99.90;;;;;;5066218;28;20219;-61
2022/08/17 05:48:51;;;;;;;2.10;1.45;;;20.70;99.90;;;;;;5068516;28;20222;-59
2022/08/17 05:51:46;;;;;;;1.30;1.30;;;20.80;99.90;;;;;;5069610;28;20567;-61
2022/08/17 05:54:28;;;;;;;1.30;1.30;;;20.90;99.90;;;;;;5066619;28;20252;-60
2022/08/17 05:57:10;;;;;;;1.80;1.50;;;20.90;99.90;;;;;;5070024;28;20199;-60
2022/08/17 05:59:48;;;;;;;1.63;1.53;;;20.90;99.90;;;;;;5068262;28;20231;-59
2022/08/17 06:02:20;;;;;;;1.20;1.20;;;20.70;99.90;;;;;;5064899;28;20199;-59
2022/08/17 06:05:06;;;;;;;2.45;1.40;;;20.70;99.90;;;;;;5072201;28;20303;-61
2022/08/17 06:07:44;;;;;;;1.20;1.20;;;20.70;99.90;;;;;;5066492;28;20261;-61
2022/08/17 06:10:17;;;;;;;1.20;1.20;;;20.70;99.90;;;;;;5069555;28;20191;-59
2022/08/17 06:13:08;;;;;;;1.33;1.23;;;20.70;99.90;;;;;;5071619;28;20209;-60
2022/08/17 06:15:49;;;;;;;1.50;1.40;;;20.70;99.90;;;;;;5070199;28;20205;-60
2022/08/17 06:18:18;;;;;;;1.27;1.27;;;20.70;99.90;;;;;;5071062;28;20800;-60
2022/08/17 06:20:54;;;;;;;1.40;1.40;;;20.70;99.90;;;;;;5070451;28;20203;-59
2022/08/17 06:23:27;;;;;;;1.37;1.37;;;20.70;99.90;;;;;;5071021;28;20298;-61
2022/08/17 06:25:58;;;;;;;1.20;1.20;;;20.70;99.90;;;;;;5071303;28;20215;-61
2022/08/17 06:28:31;;;;;;;1.35;1.30;;;20.80;99.90;;;;;;5070990;28;20700;-61
2022/08/17 06:31:06;;;;;;;1.25;1.25;;;20.80;99.90;;;;;;5071683;28;20275;-61
2022/08/17 06:33:36;;;;;;;1.30;1.30;;;20.80;99.90;;;;;;5070753;28;20207;-61
2022/08/17 06:36:16;;;;;;;1.27;1.27;;;20.90;99.90;;;;;;5071548;28;20195;-62
2022/08/17 06:38:56;;;;;;;1.30;1.30;;;20.90;99.90;;;;;;5070068;28;20258;-61
2022/08/17 06:41:33;;;;;;;1.30;1.20;;;21.00;99.90;;;;;;5071205;28;20233;-61
2022/08/17 06:44:16;;;;;;;1.20;1.20;;;21.00;99.90;;;;;;5074420;28;20206;-62
2022/08/17 06:46:48;;;;;;;1.10;1.10;;;21.00;99.90;;;;;;5068295;28;20309;-60
2022/08/17 06:49:20;;;;;;;1.25;1.25;;;21.00;99.90;;;;;;5070058;28;20231;-61
2022/08/17 06:51:53;;;;;;;1.38;1.30;;;21.10;99.90;;;;;;5065973;28;20218;-60
2022/08/17 06:54:35;;;;;;;1.00;1.00;;;21.20;99.90;;;;;;5069008;28;20207;-59
2022/08/17 06:57:09;;;;;;;1.20;1.20;;;21.20;99.90;;;;;;5062212;28;20286;-59
2022/08/17 06:59:53;;;;;;;1.30;1.20;;;21.20;99.90;;;;;;5060424;28;20250;-60
2022/08/17 07:02:26;;;;;;;1.35;1.27;;;21.20;99.90;;;;;;5058844;28;20206;-60
2022/08/17 07:04:53;;;;;;;1.27;1.27;;;21.30;99.90;;;;;;5055775;28;20208;-60
2022/08/17 07:10:09;;;;;;;1.17;1.17;;;21.20;99.90;;;;;;5056481;28;20215;-60
2022/08/17 07:12:40;;;;;;;1.60;1.50;;;21.20;99.90;;;;;;5053160;28;20290;-61
2022/08/17 07:15:13;;;;;;;1.42;1.27;;;21.10;99.90;;;;;;5060128;28;20195;-61
2022/08/17 07:17:41;;;;;;;1.42;1.42;;;21.00;99.90;;;;;;5060486;28;20220;-61
2022/08/17 07:20:10;;;;;;;1.20;1.20;;;20.90;99.90;;;;;;5057229;28;20239;-59
2022/08/17 07:22:48;;;;;;;1.08;1.08;;;20.90;99.90;;;;;;5057959;28;20487;-59
2022/08/17 07:25:18;;;;;;;1.20;1.20;;;20.90;99.90;;;;;;5062764;28;20258;-60
2022/08/17 07:27:49;;;;;;;1.20;1.20;;;20.80;99.90;;;;;;5074374;28;20314;-61
2022/08/17 07:30:19;;;;;;;1.45;1.35;;;20.80;99.90;;;;;;5074384;28;20202;-61
2022/08/17 07:32:49;;;;;;;1.42;1.33;;;20.80;99.90;;;;;;5074297;28;20199;-63
2022/08/17 07:35:21;;;;;;;1.20;1.20;;;20.80;99.90;;;;;;5076960;28;20209;-61
2022/08/17 07:37:53;;;;;;;1.20;1.20;;;20.80;99.90;;;;;;5072200;28;20223;-61
2022/08/17 07:40:33;;;;;;;0.95;0.95;;;20.80;99.90;;;;;;5077047;28;20286;-60
2022/08/17 07:43:13;;;;;;;1.20;1.20;;;20.80;99.90;;;;;;5073542;28;20210;-60
2022/08/17 07:48:46;;;;;;;1.27;1.20;;;20.70;99.90;;;;;;5073335;28;20222;-60
2022/08/17 07:51:23;;;;;;;1.10;1.10;;;20.70;99.90;;;;;;5074437;28;20538;-59
2022/08/17 07:53:51;;;;;;;1.13;1.13;;;20.70;99.90;;;;;;5072622;28;20203;-62
2022/08/17 07:56:43;;;;;;;1.10;1.10;;;20.70;99.90;;;;;;5073488;28;20206;-59
2022/08/17 07:59:14;;;;;;;1.20;1.20;;;20.70;99.90;;;;;;5073783;28;20238;-60
2022/08/17 08:01:44;;;;;;;1.50;1.50;;;20.70;99.90;;;;;;5072021;28;20199;-61
2022/08/17 08:04:33;;;;;;;1.20;1.20;;;20.70;99.90;;;;;;5073492;28;20221;-62
2022/08/17 08:07:02;;;;;;;1.02;1.02;;;20.80;99.90;;;;;;5073507;28;20219;-60
2022/08/17 08:09:40;;;;;;;1.50;1.40;;;20.80;99.90;;;;;;5071575;28;20310;-61
2022/08/17 08:12:33;;;;;;;1.05;1.05;;;21.00;99.90;;;;;;5072741;28;20655;-60
2022/08/17 08:15:02;;;;;;;1.00;1.00;;;21.00;99.90;;;;;;5071577;28;20694;-59
2022/08/17 08:17:34;;;;;;;3.03;1.13;;;21.00;99.90;;;;;;5070740;28;20282;-61
2022/08/17 08:20:07;;;;;;;1.20;1.20;;;21.00;99.90;;;;;;5073104;28;20646;-61
2022/08/17 08:22:46;;;;;;;1.20;1.20;;;21.00;99.90;;;;;;5074538;28;20230;-61
2022/08/17 08:25:23;;;;;;;1.00;1.00;;;20.90;99.90;;;;;;5074871;28;20203;-62
2022/08/17 08:28:00;;;;;;;1.10;1.10;;;20.90;99.90;;;;;;5075848;28;20317;-59
2022/08/17 08:30:30;;;;;;;1.10;1.10;;;20.90;99.90;;;;;;5073931;28;20581;-60
2022/08/17 08:33:11;;;;;;;0.97;0.97;;;20.90;99.90;;;;;;5066036;28;20208;-59
2022/08/17 08:35:43;;;;;;;0.93;0.93;;;20.90;99.90;;;;;;5065339;28;20203;-62
2022/08/17 08:38:20;;;;;;;1.10;1.10;;;20.90;99.90;;;;;;5068131;28;20223;-60
2022/08/17 08:41:08;;;;;;;1.20;1.20;;;20.90;99.90;;;;;;5072366;28;20200;-61
2022/08/17 08:43:47;;;;;;;0.90;0.90;;;21.00;99.90;;;;;;5065815;28;20196;-60
2022/08/17 08:46:22;;;;;;;0.90;0.90;;;21.00;99.90;;;;;;5072749;28;20457;-60
2022/08/17 08:49:31;;;;;;;1.07;1.07;;;21.00;99.90;;;;;;5072820;28;20233;-60
2022/08/17 08:52:00;;;;;;;1.00;1.00;;;21.00;99.90;;;;;;5045541;28;20725;-62
2022/08/17 08:54:38;;;;;;;1.20;1.20;;;21.10;99.90;;;;;;5070699;28;20233;-59
2022/08/17 08:57:17;;;;;;;1.30;1.30;;;21.30;99.90;;;;;;5074681;28;20344;-59
2022/08/17 08:59:56;;;;;;;1.10;1.10;;;21.40;99.90;;;;;;5070826;28;20210;-62
2022/08/17 09:02:39;;;;;;;1.20;1.20;;;21.50;99.90;;;;;;5071985;28;20195;-58
2022/08/17 09:05:16;;;;;;;1.00;1.00;;;21.50;99.90;;;;;;5072059;28;20282;-62
2022/08/17 09:07:51;;;;;;;1.10;1.10;;;21.60;99.90;;;;;;5070374;28;20250;-61
2022/08/17 09:10:25;;;;;;;1.27;1.27;;;21.60;99.90;;;;;;5074242;28;20505;-61
2022/08/17 09:13:00;;;;;;;1.10;1.10;;;21.60;99.90;;;;;;5066016;28;20223;-61
2022/08/17 09:15:32;;;;;;;1.23;1.23;;;21.70;99.90;;;;;;5072011;28;20230;-61
2022/08/17 09:18:04;;;;;;;1.13;1.13;;;21.80;99.90;;;;;;5077907;28;20660;-61
2022/08/17 09:20:39;;;;;;;1.20;1.20;;;21.90;99.90;;;;;;5069229;28;20657;-62
2022/08/17 09:23:12;;;;;;;1.20;1.20;;;22.00;99.90;;;;;;5073411;28;20194;-62
2022/08/17 09:25:49;;;;;;;1.10;1.10;;;22.20;99.90;;;;;;5072993;28;20287;-61
2022/08/17 09:28:19;;;;;;;1.20;1.20;;;22.20;99.90;;;;;;5071850;28;20306;-60
2022/08/17 09:30:51;;;;;;;1.60;1.50;;;22.20;99.90;;;;;;5079597;28;20261;-60
2022/08/17 09:33:24;;;;;;;1.50;1.40;;;22.30;99.90;;;;;;5065286;28;20298;-59
2022/08/17 09:35:56;;;;;;;1.00;1.00;;;22.30;99.90;;;;;;5072673;28;20211;-60
2022/08/17 09:38:30;;;;;;;1.08;1.08;;;22.30;99.90;;;;;;5073361;28;20300;-60
2022/08/17 09:41:07;;;;;;;1.30;1.30;;;22.20;99.90;;;;;;5073980;28;20284;-62
2022/08/17 09:43:41;;;;;;;1.20;1.20;;;22.20;99.90;;;;;;5074026;28;20652;-60
2022/08/17 09:46:15;;;;;;;1.20;1.20;;;22.00;99.90;;;;;;5070073;28;20211;-61
2022/08/17 09:48:49;;;;;;;1.25;1.25;;;21.90;99.90;;;;;;5065440;28;20627;-61
2022/08/17 09:51:21;;;;;;;1.20;1.20;;;21.80;99.90;;;;;;5071950;28;20267;-62
2022/08/17 09:53:49;;;;;;;1.35;1.30;;;21.90;99.90;;;;;;5066138;28;20211;-60
2022/08/17 09:56:30;;;;;;;1.13;1.13;;;21.90;99.90;;;;;;5068330;28;20235;-61
2022/08/17 09:59:18;;;;;;;1.20;1.20;;;22.10;99.90;;;;;;5062818;28;20238;-62
2022/08/17 10:01:54;;;;;;;1.27;1.27;;;22.20;99.90;;;;;;5067124;28;20203;-61
2022/08/17 10:04:35;;;;;;;1.30;1.30;;;22.20;99.90;;;;;;5070388;28;20274;-61
2022/08/17 10:07:10;;;;;;;1.20;1.20;;;22.20;99.90;;;;;;5071099;28;20721;-62
2022/08/17 10:09:51;;;;;;;1.50;1.40;;;22.20;99.90;;;;;;5071754;28;20314;-60
2022/08/17 10:12:30;;;;;;;1.27;1.27;;;22.20;99.90;;;;;;5071340;28;20874;-59
2022/08/17 10:15:06;;;;;;;1.20;1.20;;;22.20;99.90;;;;;;5070730;28;20191;-59
2022/08/17 10:17:42;;;;;;;1.60;1.50;;;22.10;99.90;;;;;;5066951;28;20199;-62
2022/08/17 10:20:12;;;;;;;1.20;1.20;;;22.10;99.90;;;;;;5070889;28;20295;-61
2022/08/17 10:28:19;;;;;;;1.38;1.38;;;22.10;99.90;;;;;;5064642;28;20727;-60
2022/08/17 10:30:50;;;;;;;1.23;1.23;;;22.10;99.90;;;;;;5071728;28;20264;-59
2022/08/17 10:33:23;;;;;;;1.10;1.10;;;22.20;99.90;;;;;;5063670;28;20191;-60
2022/08/17 10:35:56;;;;;;;1.30;1.30;;;22.30;99.90;;;;;;5069818;28;20199;-59
2022/08/17 10:38:39;;;;;;;1.17;1.17;;;22.30;99.90;;;;;;5071935;28;20226;-60
2022/08/17 10:41:21;;;;;;;1.10;1.10;;;22.40;99.90;;;;;;5070953;28;20282;-61
2022/08/17 10:43:58;;;;;;;1.20;1.20;;;22.60;99.90;;;;;;5069581;28;20286;-61
2022/08/17 10:46:45;;;;;;;1.08;1.08;;;22.80;99.90;;;;;;5070698;28;20210;-61
2022/08/17 10:49:31;;;;;;;1.10;1.10;;;23.00;99.90;;;;;;5070117;28;20216;-60
2022/08/17 10:52:01;;;;;;;1.00;1.00;;;23.10;99.90;;;;;;5073456;28;20257;-60
2022/08/17 10:55:09;;;;;;;1.10;1.10;;;23.20;99.90;;;;;;5071668;28;20275;-60
2022/08/17 10:57:40;;;;;;;1.00;1.00;;;23.10;99.90;;;;;;5033142;28;20314;-59
2022/08/17 11:00:14;;;;;;;1.20;1.20;;;23.20;99.90;;;;;;5068109;28;20200;-61
2022/08/17 11:02:49;;;;;;;1.10;1.10;;;23.30;99.90;;;;;;5073015;28;20684;-60
2022/08/17 11:05:36;;;;;;;1.02;1.02;;;23.40;99.90;;;;;;5067586;28;20198;-62
2022/08/17 11:08:34;;;;;;;1.20;1.20;;;23.50;99.90;;;;;;5072872;28;20314;-60
2022/08/17 11:11:34;;;;;;;1.20;1.10;;;23.40;99.90;;;;;;5071398;28;20203;-59
2022/08/17 11:14:17;;;;;;;1.10;1.10;;;23.50;99.90;;;;;;5069567;28;20697;-61
2022/08/17 11:16:58;;;;;;;1.10;1.10;;;23.70;99.90;;;;;;5070041;28;20210;-61
2022/08/17 11:19:47;;;;;;;1.10;1.10;;;23.90;99.90;;;;;;5064741;28;20234;-59
2022/08/17 11:22:56;;;;;;;1.13;1.13;;;24.00;99.90;;;;;;5067595;28;20206;-60
2022/08/17 11:25:34;;;;;;;1.17;1.17;;;24.20;99.90;;;;;;5048506;28;20207;-60
2022/08/17 11:28:07;;;;;;;0.90;0.90;;;24.50;99.90;;;;;;5072127;28;20264;-60
2022/08/17 11:30:47;;;;;;;1.00;1.00;;;24.60;99.90;;;;;;5071229;28;20587;-60
2022/08/17 11:33:56;;;;;;;1.38;1.30;;;24.70;99.90;;;;;;5065711;28;20252;-59
2022/08/17 11:36:54;;;;;;;1.08;1.08;;;24.80;99.90;;;;;;5049149;28;20239;-60
2022/08/17 11:39:49;;;;;;;1.00;1.00;;;25.00;99.90;;;;;;5048978;28;20262;-60
2022/08/17 11:42:30;;;;;;;1.08;1.08;;;25.30;99.90;;;;;;5069316;28;20289;-60
2022/08/17 11:44:59;;;;;;;1.10;1.10;;;25.70;99.90;;;;;;5070587;28;20223;-60
2022/08/17 11:54:00;;;;;;;1.00;1.00;;;26.60;99.90;;;;;;5058582;28;20277;-59
2022/08/17 11:56:37;;;;;;;1.20;1.20;;;27.00;99.90;;;;;;5017474;28;20211;-61
2022/08/17 11:59:44;;;;;;;0.90;0.90;;;27.10;99.90;;;;;;5018316;28;20247;-61
2022/08/17 12:02:47;;;;;;;0.90;0.90;;;27.30;99.90;;;;;;5025858;28;20200;-60
2022/08/17 12:05:32;;;;;;;1.00;1.00;;;27.50;99.90;;;;;;4970139;28;20202;-60
2022/08/17 12:08:17;;;;;;;1.00;1.00;;;27.80;99.90;;;;;;4958610;28;20459;-62
2022/08/17 12:11:01;;;;;;;1.08;1.08;;;28.10;99.90;;;;;;4967521;28;20580;-60
2022/08/17 12:13:30;;;;;;;1.00;1.00;;;28.30;99.90;;;;;;4968065;28;20206;-60
2022/08/17 12:15:59;;;;;;;0.93;0.93;;;28.50;99.90;;;;;;4975975;28;20207;-59
2022/08/17 12:18:28;;;;;;;0.90;0.90;;;28.50;99.90;;;;;;4974819;28;20237;-60
2022/08/17 12:21:19;;;;;;;1.00;1.00;;;28.50;99.90;;;;;;4979576;28;20234;-59
2022/08/17 12:23:54;;;;;;;0.93;0.93;;;28.60;99.90;;;;;;4970991;28;20202;-60
2022/08/17 12:26:25;;;;;;;0.98;0.98;;;28.70;99.90;;;;;;4970489;28;20198;-61
2022/08/17 12:28:58;;;;;;;0.95;0.95;;;28.90;99.90;;;;;;5028871;28;20228;-60
2022/08/17 12:31:29;;;;;;;0.88;0.88;;;29.10;99.90;;;;;;5032420;28;20213;-59
2022/08/17 12:33:56;;;;;;;1.00;1.00;;;29.30;99.90;;;;;;5031876;28;20235;-62
2022/08/17 12:36:25;;;;;;;0.90;0.90;;;29.20;99.90;;;;;;5058228;28;20222;-61
2022/08/17 12:38:56;;;;;;;0.95;0.95;;;29.00;99.90;;;;;;5070997;28;20328;-61
2022/08/17 12:41:37;;;;;;;0.90;0.90;;;28.80;99.90;;;;;;5068429;28;20207;-61
2022/08/17 12:44:08;;;;;;;0.88;0.88;;;28.90;99.90;;;;;;5064424;28;20729;-61
2022/08/17 12:46:52;;;;;;;0.90;0.90;;;29.00;99.90;;;;;;5064489;28;20211;-61
2022/08/17 12:49:28;;;;;;;0.90;0.90;;;29.10;99.90;;;;;;5060712;28;20319;-61
2022/08/17 12:52:03;;;;;;;0.95;0.95;;;29.20;99.90;;;;;;5068169;28;20199;-61
2022/08/17 12:54:38;;;;;;;0.98;0.98;;;29.40;99.90;;;;;;5061684;28;20204;-61
2022/08/17 12:57:10;;;;;;;1.17;1.17;;;29.40;99.90;;;;;;5062776;28;20280;-61
2022/08/17 12:59:41;;;;;;;1.00;1.00;;;29.50;99.90;;;;;;5066270;28;20418;-62
2022/08/17 13:02:20;;;;;;;1.17;1.17;;;29.60;99.90;;;;;;5062921;28;20286;-61
2022/08/17 13:04:47;;;;;;;1.00;1.00;;;29.60;99.90;;;;;;5058610;28;20199;-60
2022/08/17 13:07:27;;;;;;;1.10;1.10;;;29.50;99.90;;;;;;5061639;28;20209;-59
2022/08/17 13:09:54;;;;;;;1.13;0.90;;;29.80;99.90;;;;;;5059922;28;20905;-60
2022/08/17 13:12:30;;;;;;;0.90;0.90;;;30.00;99.90;;;;;;5061714;28;20214;-60
2022/08/17 13:14:58;;;;;;;2.75;1.20;;;30.10;99.90;;;;;;5060706;28;20290;-61
2022/08/17 13:17:33;;;;;;;1.00;1.00;;;30.20;99.90;;;;;;5063994;28;20672;-61
2022/08/17 13:20:01;;;;;;;0.82;0.82;;;30.20;99.90;;;;;;5058785;28;20749;-61
2022/08/17 13:22:31;;;;;;;0.90;0.90;;;30.20;99.90;;;;;;5056080;28;20689;-62
2022/08/17 13:25:04;;;;;;;0.88;0.88;;;30.20;99.90;;;;;;5059374;28;20207;-60
2022/08/17 13:27:33;;;;;;;0.90;0.90;;;30.20;99.90;;;;;;5062648;28;20231;-62
2022/08/17 13:30:04;;;;;;;1.05;1.05;;;30.10;99.90;;;;;;5061615;28;21855;-62
2022/08/17 13:32:39;;;;;;;1.00;1.00;;;30.10;99.90;;;;;;5059139;28;20204;-61
2022/08/17 13:35:42;;;;;;;0.80;0.80;;;30.00;99.90;;;;;;5062297;28;20207;-61
2022/08/17 13:38:12;;;;;;;1.00;1.00;;;29.90;99.90;;;;;;5062113;28;20297;-61
2022/08/17 13:40:43;;;;;;;0.98;0.98;;;29.70;99.90;;;;;;5064056;28;20210;-62
2022/08/17 13:43:11;;;;;;;0.80;0.80;;;29.60;99.90;;;;;;5063363;28;20207;-62
2022/08/17 13:45:48;;;;;;;1.00;1.00;;;29.60;99.90;;;;;;5061839;28;20227;-62
2022/08/17 13:48:31;;;;;;;0.93;0.93;;;29.60;99.90;;;;;;5062050;28;20222;-61
2022/08/17 13:51:33;;;;;;;0.90;0.90;;;29.50;99.90;;;;;;5060020;28;20196;-61